Time;durP1;ratioP1;P1;durP2;ratioP2;P2;SDS_P1;SDS_P2;PMS_P1;PMS_P2;Temp;Humidity;BMP_temperature;BMP_pressure;BME280_temperature;BME280_humidity;BME280_pressure;Samples;Min_cycle;Max_cycle;Signal;HPM_P1;HPM_P2
2022/06/02 00:00:47;;;;;;;13.15;11.15;;;10.00;99.90;;;;;;4896725;29;20036;-76
2022/06/02 00:03:34;;;;;;;14.35;12.10;;;10.00;99.90;;;;;;4887403;29;20036;-77
2022/06/02 00:06:15;;;;;;;13.27;11.88;;;10.00;99.90;;;;;;4877136;29;20048;-77
2022/06/02 00:08:59;;;;;;;12.90;11.27;;;10.00;99.90;;;;;;4882110;29;20068;-76
2022/06/02 00:11:54;;;;;;;12.93;10.68;;;9.90;99.90;;;;;;4893879;29;20040;-77
2022/06/02 00:14:19;;;;;;;13.43;11.57;;;9.90;99.90;;;;;;4861164;29;20517;-77
2022/06/02 00:17:33;;;;;;;12.73;11.15;;;9.90;99.90;;;;;;4894260;29;20056;-76
2022/06/02 00:20:19;;;;;;;12.77;11.38;;;9.90;99.90;;;;;;4855512;29;20052;-76
2022/06/02 00:23:14;;;;;;;15.48;11.20;;;9.80;99.90;;;;;;4894994;29;20035;-77
2022/06/02 00:26:02;;;;;;;12.73;10.52;;;9.80;99.90;;;;;;4893068;29;20139;-77
2022/06/02 00:29:05;;;;;;;11.43;10.18;;;9.70;99.90;;;;;;4867783;29;20041;-77
2022/06/02 00:31:46;;;;;;;11.48;9.50;;;9.70;99.90;;;;;;4870425;29;20032;-76
2022/06/02 00:34:24;;;;;;;11.00;9.02;;;9.60;99.90;;;;;;4879059;29;20114;-76
2022/06/02 00:37:13;;;;;;;11.63;9.68;;;9.60;99.90;;;;;;4879742;29;20045;-76
2022/06/02 00:39:39;;;;;;;12.77;10.27;;;9.60;99.90;;;;;;4860284;29;20056;-76
2022/06/02 00:42:23;;;;;;;11.80;10.02;;;9.50;99.90;;;;;;4892890;29;20043;-76
2022/06/02 00:44:59;;;;;;;11.90;10.70;;;9.50;99.90;;;;;;4894102;29;20079;-76
2022/06/02 00:48:13;;;;;;;12.43;10.15;;;9.50;99.90;;;;;;4895984;29;20032;-76
2022/06/02 00:50:50;;;;;;;11.35;9.93;;;9.50;99.90;;;;;;4879198;29;20056;-77
2022/06/02 00:57:30;;;;;;;11.02;9.90;;;9.50;99.90;;;;;;4895740;29;20123;-77
2022/06/02 00:59:49;;;;;;;12.95;10.43;;;9.80;99.90;;;;;;4894581;29;20063;-76
2022/06/02 01:02:16;;;;;;;11.23;9.73;;;9.90;99.90;;;;;;4897619;29;20072;-76
2022/06/02 01:04:43;;;;;;;12.40;11.10;;;9.70;99.90;;;;;;4880001;29;20047;-76
2022/06/02 01:07:48;;;;;;;13.23;11.48;;;9.40;99.90;;;;;;4882167;29;20095;-77
2022/06/02 01:10:25;;;;;;;16.48;10.50;;;9.50;99.90;;;;;;4881769;29;20044;-76
2022/06/02 01:13:15;;;;;;;13.65;11.57;;;9.40;99.90;;;;;;4884146;29;20742;-76
2022/06/02 01:15:52;;;;;;;12.07;10.73;;;9.40;99.90;;;;;;4882800;29;20039;-77
2022/06/02 01:18:59;;;;;;;12.85;10.60;;;9.30;99.90;;;;;;4895536;29;20040;-76
2022/06/02 01:21:52;;;;;;;12.65;10.70;;;9.30;99.90;;;;;;4894745;29;20040;-76
2022/06/02 01:24:39;;;;;;;11.98;10.57;;;9.30;99.90;;;;;;4883852;29;20047;-77
2022/06/02 01:27:23;;;;;;;14.23;11.07;;;9.30;99.90;;;;;;4876761;29;20040;-77
2022/06/02 01:30:09;;;;;;;13.55;10.27;;;9.30;99.90;;;;;;4902681;29;20123;-76
2022/06/02 01:33:13;;;;;;;12.45;11.05;;;9.30;99.90;;;;;;4889276;29;20103;-76
2022/06/02 01:36:13;;;;;;;13.05;11.63;;;9.30;99.90;;;;;;4863950;29;20474;-77
2022/06/02 01:38:53;;;;;;;13.77;10.75;;;9.20;99.90;;;;;;4895561;29;20059;-76
2022/06/02 01:41:25;;;;;;;13.15;10.23;;;9.20;99.90;;;;;;4910058;29;20052;-76
2022/06/02 01:44:09;;;;;;;15.27;11.75;;;9.10;99.90;;;;;;4895583;29;20047;-76
2022/06/02 01:46:35;;;;;;;12.70;11.15;;;9.00;99.90;;;;;;4881387;29;20400;-77
2022/06/02 01:49:07;;;;;;;13.15;11.27;;;9.00;99.90;;;;;;4874006;29;20044;-76
2022/06/02 01:52:01;;;;;;;14.43;11.30;;;9.00;99.90;;;;;;4879926;29;20052;-76
2022/06/02 01:54:40;;;;;;;15.65;12.50;;;9.00;99.90;;;;;;4872630;29;20063;-77
2022/06/02 01:57:34;;;;;;;13.05;11.40;;;9.00;99.90;;;;;;4894330;29;20048;-76
2022/06/02 02:00:08;;;;;;;13.60;10.65;;;9.00;99.90;;;;;;4884541;29;20091;-76
2022/06/02 02:02:52;;;;;;;12.35;10.93;;;8.90;99.90;;;;;;4893796;29;20044;-77
2022/06/02 02:05:18;;;;;;;12.57;11.27;;;8.90;99.90;;;;;;4879649;29;20046;-77
2022/06/02 02:07:48;;;;;;;11.75;10.43;;;8.90;99.90;;;;;;4879799;29;20032;-77
2022/06/02 02:10:52;;;;;;;13.32;11.52;;;8.90;99.90;;;;;;4879181;29;20048;-77
2022/06/02 02:13:27;;;;;;;10.50;8.70;;;8.90;99.90;;;;;;4893698;29;20039;-77
2022/06/02 02:16:37;;;;;;;8.27;7.28;;;8.80;99.90;;;;;;4903699;29;20051;-77
2022/06/02 02:19:24;;;;;;;8.77;7.40;;;8.70;99.90;;;;;;4891650;29;20546;-76
2022/06/02 02:22:14;;;;;;;8.30;7.25;;;8.70;99.90;;;;;;4879573;29;20091;-76
2022/06/02 02:24:57;;;;;;;8.32;7.32;;;8.60;99.90;;;;;;4894286;29;20052;-76
2022/06/02 02:28:03;;;;;;;8.20;6.97;;;8.60;99.90;;;;;;4876822;29;20060;-77
2022/06/02 02:30:44;;;;;;;7.40;6.60;;;8.60;99.90;;;;;;4895117;29;20089;-76
2022/06/02 02:33:47;;;;;;;8.68;7.03;;;8.50;99.90;;;;;;4894955;29;20043;-77
2022/06/02 02:36:50;;;;;;;7.53;6.63;;;8.50;99.90;;;;;;4878120;29;20063;-77
2022/06/02 02:39:22;;;;;;;8.45;7.40;;;8.50;99.90;;;;;;4882119;29;20055;-76
2022/06/02 02:42:06;;;;;;;9.20;8.10;;;8.40;99.90;;;;;;4889964;29;20047;-77
2022/06/02 02:44:43;;;;;;;10.05;8.18;;;8.40;99.90;;;;;;4878381;29;20072;-77
2022/06/02 02:47:37;;;;;;;9.82;8.27;;;8.40;99.90;;;;;;4893285;29;20079;-76
2022/06/02 02:50:10;;;;;;;15.07;9.48;;;8.40;99.90;;;;;;4878512;29;20127;-77
2022/06/02 02:52:54;;;;;;;14.25;9.98;;;8.40;99.90;;;;;;4877992;29;20056;-76
2022/06/02 02:55:35;;;;;;;12.07;9.45;;;8.40;99.90;;;;;;4891233;29;20052;-77
2022/06/02 02:58:15;;;;;;;12.30;9.57;;;8.40;99.90;;;;;;4892407;29;20048;-76
2022/06/02 03:00:59;;;;;;;14.20;11.35;;;8.30;99.90;;;;;;4892614;29;20040;-77
2022/06/02 03:03:37;;;;;;;13.40;10.60;;;8.30;99.90;;;;;;4880048;29;20050;-77
2022/06/02 03:06:28;;;;;;;12.85;10.35;;;8.30;99.90;;;;;;4883624;29;20048;-76
2022/06/02 03:08:56;;;;;;;12.68;10.57;;;8.30;99.90;;;;;;4893228;29;20131;-77
2022/06/02 03:11:25;;;;;;;13.13;10.80;;;8.20;99.90;;;;;;4892289;29;20043;-77
2022/06/02 03:13:56;;;;;;;13.85;10.90;;;8.30;99.90;;;;;;4879148;29;20052;-76
2022/06/02 03:16:23;;;;;;;12.65;10.20;;;8.80;99.90;;;;;;4878814;29;20072;-76
2022/06/02 03:19:19;;;;;;;13.38;10.82;;;8.20;99.90;;;;;;4894317;29;20107;-76
2022/06/02 03:22:02;;;;;;;11.82;10.18;;;8.20;99.90;;;;;;4879452;29;20036;-76
2022/06/02 03:24:45;;;;;;;13.82;11.13;;;8.20;99.90;;;;;;4896576;29;20052;-76
2022/06/02 03:27:43;;;;;;;12.63;10.63;;;8.20;99.90;;;;;;4913312;29;20477;-76
2022/06/02 03:30:18;;;;;;;13.63;11.30;;;8.20;99.90;;;;;;4885789;29;20036;-77
2022/06/02 03:32:46;;;;;;;13.45;10.77;;;8.20;99.90;;;;;;4908582;29;20171;-77
2022/06/02 03:35:24;;;;;;;10.90;9.23;;;8.20;99.90;;;;;;4881286;29;20440;-76
2022/06/02 03:38:21;;;;;;;11.00;8.27;;;8.20;99.90;;;;;;4893135;29;20059;-77
2022/06/02 03:41:03;;;;;;;8.88;7.63;;;8.10;99.90;;;;;;4877221;29;20044;-78
2022/06/02 03:43:34;;;;;;;8.00;7.05;;;8.00;99.90;;;;;;4896460;29;20040;-77
2022/06/02 03:46:07;;;;;;;7.57;6.78;;;8.00;99.90;;;;;;4880312;29;20138;-77
2022/06/02 03:48:55;;;;;;;7.00;6.30;;;8.00;99.90;;;;;;4893047;29;20099;-78
2022/06/02 03:51:50;;;;;;;8.15;6.82;;;7.90;99.90;;;;;;4881260;29;20510;-78
2022/06/02 03:54:21;;;;;;;7.30;6.15;;;7.90;99.90;;;;;;4871250;29;20378;-77
2022/06/02 03:57:23;;;;;;;7.38;6.20;;;7.80;99.90;;;;;;4874553;29;20486;-77
2022/06/02 03:59:55;;;;;;;7.15;5.82;;;7.80;99.90;;;;;;4897701;29;20048;-78
2022/06/02 04:02:50;;;;;;;7.53;6.28;;;7.70;99.90;;;;;;4898331;29;20076;-78
2022/06/02 04:05:30;;;;;;;6.82;6.13;;;7.70;99.90;;;;;;4841324;29;20100;-77
2022/06/02 04:08:17;;;;;;;7.20;6.50;;;7.70;99.90;;;;;;4868652;29;20044;-78
2022/06/02 04:10:54;;;;;;;8.18;7.22;;;7.70;99.90;;;;;;4874581;29;20072;-77
2022/06/02 04:13:37;;;;;;;9.90;8.35;;;7.70;99.90;;;;;;4896350;29;20104;-77
2022/06/02 04:16:28;;;;;;;7.93;7.03;;;7.70;99.90;;;;;;4881228;29;20127;-78
2022/06/02 04:20:34;;;;;;;11.98;10.18;;;7.70;99.90;;;;;;4895565;29;20044;-78
2022/06/02 04:22:13;;;;;;;9.32;8.05;;;7.80;99.90;;;;;;4895937;29;20052;-77
2022/06/02 04:25:07;;;;;;;11.02;8.68;;;7.80;99.90;;;;;;4897505;29;20489;-78
2022/06/02 04:27:44;;;;;;;11.73;9.77;;;7.90;99.90;;;;;;4889154;29;20040;-78
2022/06/02 04:30:33;;;;;;;10.30;8.63;;;7.90;99.90;;;;;;4881971;29;20709;-77
2022/06/02 04:33:30;;;;;;;10.00;8.65;;;7.90;99.90;;;;;;4879899;29;20079;-78
2022/06/02 04:36:23;;;;;;;12.65;8.93;;;8.00;99.90;;;;;;4893597;29;20043;-77
2022/06/02 04:38:58;;;;;;;10.95;9.48;;;8.00;99.90;;;;;;4895798;29;20051;-78
2022/06/02 04:41:29;;;;;;;11.88;8.95;;;8.00;99.90;;;;;;4886588;29;20048;-77
2022/06/02 04:44:18;;;;;;;13.85;11.27;;;8.10;99.90;;;;;;4880938;29;20139;-83
2022/06/02 04:47:19;;;;;;;15.07;12.20;;;8.10;99.90;;;;;;4882724;29;20055;-84
2022/06/02 04:49:56;;;;;;;15.10;12.80;;;8.20;99.90;;;;;;4882920;29;20505;-83
2022/06/02 04:52:27;;;;;;;15.75;13.18;;;8.30;99.90;;;;;;4882415;29;20457;-84
2022/06/02 04:55:02;;;;;;;15.35;12.88;;;8.30;99.90;;;;;;4886251;29;20052;-83
2022/06/02 04:58:05;;;;;;;16.42;14.13;;;8.40;99.90;;;;;;4883980;29;20055;-84
2022/06/02 05:00:47;;;;;;;17.23;13.88;;;8.50;99.90;;;;;;4882992;29;20044;-84
2022/06/02 05:03:19;;;;;;;18.10;14.25;;;8.60;99.90;;;;;;4878762;29;20136;-83
2022/06/02 05:05:55;;;;;;;16.35;14.07;;;8.60;99.90;;;;;;4899159;29;20055;-83
2022/06/02 05:08:43;;;;;;;18.42;15.15;;;8.80;99.90;;;;;;4884850;29;20099;-83
2022/06/02 05:11:27;;;;;;;17.45;14.00;;;8.80;99.90;;;;;;4883743;29;20040;-83
2022/06/02 05:14:08;;;;;;;18.35;14.55;;;8.90;99.90;;;;;;4886568;29;20052;-83
2022/06/02 05:16:46;;;;;;;18.50;14.35;;;9.00;99.90;;;;;;4881934;29;20485;-83
2022/06/02 05:19:20;;;;;;;17.98;14.35;;;9.10;99.90;;;;;;4885001;29;20076;-83
2022/06/02 05:22:20;;;;;;;19.10;15.48;;;9.20;99.90;;;;;;4885105;29;20143;-83
2022/06/02 05:24:52;;;;;;;17.67;15.15;;;9.30;99.90;;;;;;4900776;29;20096;-83
2022/06/02 05:27:23;;;;;;;24.13;15.55;;;9.40;99.90;;;;;;4884754;29;20491;-84
2022/06/02 05:29:49;;;;;;;21.90;16.80;;;9.60;99.90;;;;;;4872990;29;20047;-83
2022/06/02 05:32:27;;;;;;;19.58;16.23;;;9.70;99.90;;;;;;4886813;29;20048;-83
2022/06/02 05:35:14;;;;;;;19.33;15.68;;;9.80;99.90;;;;;;4887402;29;20791;-83
2022/06/02 05:38:17;;;;;;;19.17;15.55;;;9.90;99.90;;;;;;4886148;29;20059;-83
2022/06/02 05:41:01;;;;;;;20.92;16.90;;;10.00;99.90;;;;;;4896604;29;20504;-83
2022/06/02 05:43:42;;;;;;;20.55;16.80;;;10.10;99.90;;;;;;4899321;29;20040;-83
2022/06/02 05:46:10;;;;;;;23.17;17.52;;;10.20;99.90;;;;;;4888260;29;20052;-84
2022/06/02 05:49:10;;;;;;;21.13;16.52;;;10.40;99.90;;;;;;4887485;29;20040;-84
2022/06/02 05:51:52;;;;;;;19.00;15.82;;;10.40;99.90;;;;;;4882286;29;20480;-83
2022/06/02 05:54:39;;;;;;;19.52;14.35;;;10.50;99.90;;;;;;4864370;29;20059;-83
2022/06/02 05:57:17;;;;;;;21.27;15.20;;;10.70;99.90;;;;;;4879765;29;20631;-84
2022/06/02 05:59:43;;;;;;;22.70;15.07;;;10.70;99.90;;;;;;4882073;29;21016;-83
2022/06/02 06:02:14;;;;;;;17.08;13.98;;;10.90;99.90;;;;;;4883630;29;20052;-86
2022/06/02 06:05:02;;;;;;;17.13;13.57;;;11.00;99.90;;;;;;4865439;29;20048;-83
2022/06/02 06:08:00;;;;;;;17.10;12.75;;;11.00;99.90;;;;;;4893499;29;20512;-83
2022/06/02 06:10:39;;;;;;;16.17;12.38;;;11.10;99.90;;;;;;4865894;29;20112;-83
2022/06/02 06:13:08;;;;;;;19.48;12.18;;;11.20;99.90;;;;;;4880540;29;20043;-83
2022/06/02 06:16:11;;;;;;;13.63;10.68;;;11.30;99.90;;;;;;4865393;29;20033;-83
2022/06/02 06:18:50;;;;;;;11.68;9.30;;;11.40;99.90;;;;;;4865599;29;20123;-82
2022/06/02 06:21:40;;;;;;;12.98;9.35;;;11.60;99.90;;;;;;4870303;29;20051;-83
2022/06/02 06:24:32;;;;;;;14.95;9.23;;;11.70;99.90;;;;;;4881388;29;20085;-85
2022/06/02 06:27:25;;;;;;;8.95;7.38;;;11.80;99.90;;;;;;4885477;29;20048;-84
2022/06/02 06:30:22;;;;;;;9.15;6.78;;;11.90;99.90;;;;;;4894399;29;20041;-84
2022/06/02 06:33:52;;;;;;;7.03;4.85;;;12.10;99.90;;;;;;4912332;29;20051;-84
2022/06/02 06:36:38;;;;;;;6.30;4.80;;;12.30;99.90;;;;;;4821225;29;20108;-84
2022/06/02 06:39:21;;;;;;;6.43;3.70;;;12.50;99.90;;;;;;4810399;29;20050;-83
2022/06/02 06:42:17;;;;;;;7.93;3.40;;;12.70;99.90;;;;;;4858632;29;20594;-84
2022/06/02 06:45:08;;;;;;;4.78;3.65;;;12.90;99.90;;;;;;4879626;29;20115;-83
2022/06/02 06:47:45;;;;;;;4.63;3.35;;;13.00;99.90;;;;;;4879319;29;20044;-84
2022/06/02 06:50:18;;;;;;;5.07;4.05;;;13.10;99.90;;;;;;4878746;29;20064;-85
2022/06/02 06:53:05;;;;;;;6.65;3.58;;;13.20;99.90;;;;;;4881411;29;20465;-82
2022/06/02 06:55:55;;;;;;;5.32;3.15;;;13.30;99.90;;;;;;4912617;29;20047;-82
2022/06/02 06:58:59;;;;;;;4.68;2.92;;;13.50;99.90;;;;;;4888146;29;20040;-82
2022/06/02 07:01:38;;;;;;;4.43;2.88;;;13.80;99.90;;;;;;4887332;29;20042;-83
2022/06/02 07:04:29;;;;;;;3.85;3.03;;;14.00;99.90;;;;;;4888882;29;20044;-83
2022/06/02 07:07:13;;;;;;;4.22;3.28;;;14.10;99.90;;;;;;4890146;29;20047;-83
2022/06/02 07:10:14;;;;;;;6.15;2.90;;;14.30;99.90;;;;;;4874998;29;20037;-83
2022/06/02 07:13:14;;;;;;;3.72;2.67;;;14.50;99.90;;;;;;4874370;29;20071;-82
2022/06/02 07:15:47;;;;;;;6.03;2.78;;;14.60;99.90;;;;;;4890439;29;20040;-82
2022/06/02 07:18:39;;;;;;;3.75;2.70;;;14.70;99.90;;;;;;4875354;29;20056;-83
2022/06/02 07:21:37;;;;;;;4.20;2.50;;;14.80;99.90;;;;;;4876120;29;20621;-83
2022/06/02 07:24:23;;;;;;;4.40;2.50;;;14.80;99.90;;;;;;4889735;29;20044;-84
2022/06/02 07:27:26;;;;;;;3.28;2.55;;;14.70;99.90;;;;;;4891087;29;20043;-84
2022/06/02 07:30:10;;;;;;;5.88;2.75;;;14.90;99.90;;;;;;4907130;29;20158;-83
2022/06/02 07:32:48;;;;;;;3.90;2.20;;;15.20;99.90;;;;;;4878725;29;20044;-83
2022/06/02 07:35:52;;;;;;;4.22;2.25;;;15.40;99.90;;;;;;4898459;29;20055;-83
2022/06/02 07:38:17;;;;;;;4.00;2.30;;;15.70;99.90;;;;;;4893803;29;20040;-84
2022/06/02 07:41:15;;;;;;;3.65;2.35;;;16.00;99.90;;;;;;4875159;29;20040;-83
2022/06/02 07:44:00;;;;;;;2.85;2.10;;;16.50;99.90;;;;;;4891749;29;20119;-82
2022/06/02 07:46:35;;;;;;;2.80;1.60;;;16.80;99.90;;;;;;4878552;29;20045;-83
2022/06/02 07:49:25;;;;;;;4.07;1.85;;;16.70;99.90;;;;;;4914911;29;20055;-83
2022/06/02 07:52:13;;;;;;;3.42;1.88;;;16.40;99.90;;;;;;4892239;29;20044;-84
2022/06/02 07:54:54;;;;;;;2.95;1.80;;;16.30;99.90;;;;;;4880388;29;20055;-83
2022/06/02 07:57:53;;;;;;;3.30;1.80;;;16.40;99.90;;;;;;4881869;29;20056;-83
2022/06/02 08:00:24;;;;;;;2.50;1.63;;;16.60;99.90;;;;;;4881852;29;20119;-83
2022/06/02 08:03:16;;;;;;;2.67;1.60;;;17.10;99.90;;;;;;4895284;29;20041;-83
2022/06/02 08:06:07;;;;;;;2.35;1.60;;;17.40;99.90;;;;;;4868014;29;20394;-83
2022/06/02 08:08:45;;;;;;;2.30;1.77;;;17.50;99.90;;;;;;4882934;29;20060;-83
2022/06/02 08:11:38;;;;;;;4.78;1.92;;;17.60;99.90;;;;;;4879447;29;20545;-83
2022/06/02 08:14:31;;;;;;;4.00;1.55;;;17.80;99.90;;;;;;4879995;29;20037;-83
2022/06/02 08:17:20;;;;;;;2.05;1.02;;;17.80;99.90;;;;;;4897343;29;20105;-83
2022/06/02 08:20:07;;;;;;;2.53;1.30;;;17.60;99.90;;;;;;4882239;29;20041;-82
2022/06/02 08:22:46;;;;;;;1.80;1.00;;;17.50;99.90;;;;;;4882847;29;20075;-83
2022/06/02 08:25:14;;;;;;;2.83;1.40;;;17.60;99.90;;;;;;4884922;29;20489;-81
2022/06/02 08:28:06;;;;;;;2.83;1.60;;;17.90;99.90;;;;;;4883335;29;20048;-81
2022/06/02 08:30:44;;;;;;;3.35;1.52;;;18.10;99.90;;;;;;4869018;29;20600;-82
2022/06/02 08:33:46;;;;;;;2.10;1.40;;;18.20;99.90;;;;;;4881737;29;20468;-81
2022/06/02 08:36:14;;;;;;;1.70;1.38;;;18.20;99.90;;;;;;4884452;29;20096;-81
2022/06/02 08:38:46;;;;;;;2.58;1.58;;;18.00;99.90;;;;;;4866085;29;20088;-81
2022/06/02 08:41:39;;;;;;;2.30;1.70;;;17.60;99.90;;;;;;4869234;29;20044;-83
2022/06/02 08:44:32;;;;;;;2.50;1.40;;;17.50;99.90;;;;;;4865757;29;20394;-81
2022/06/02 08:47:19;;;;;;;4.32;1.88;;;17.60;99.90;;;;;;4893664;29;20068;-81
2022/06/02 08:50:13;;;;;;;3.88;1.85;;;17.70;99.90;;;;;;4883884;29;20045;-81
2022/06/02 08:53:16;;;;;;;3.28;1.67;;;17.90;99.90;;;;;;4885785;29;20045;-81
2022/06/02 08:55:59;;;;;;;3.25;1.60;;;18.20;99.90;;;;;;4882311;29;20523;-82
2022/06/02 08:58:46;;;;;;;2.40;1.40;;;18.30;99.90;;;;;;4864672;29;20067;-81
2022/06/02 09:01:15;;;;;;;4.93;1.67;;;18.20;99.90;;;;;;4876623;29;20127;-81
2022/06/02 09:03:59;;;;;;;2.25;1.13;;;18.00;99.90;;;;;;4876504;29;20406;-81
2022/06/02 09:06:25;;;;;;;3.30;1.75;;;17.80;99.90;;;;;;4864782;29;20096;-81
2022/06/02 09:09:34;;;;;;;3.92;1.77;;;17.60;99.90;;;;;;4879355;29;20052;-81
2022/06/02 09:12:15;;;;;;;3.78;2.00;;;17.80;99.90;;;;;;4859724;29;20117;-81
2022/06/02 09:15:05;;;;;;;3.63;1.73;;;18.00;99.90;;;;;;4878464;29;20040;-81
2022/06/02 09:17:51;;;;;;;3.50;1.75;;;18.40;99.90;;;;;;4871634;29;20092;-81
2022/06/02 09:20:36;;;;;;;3.05;1.73;;;18.70;99.90;;;;;;4878217;29;20044;-81
2022/06/02 09:23:42;;;;;;;2.15;1.52;;;19.00;99.90;;;;;;4877790;29;20049;-81
2022/06/02 09:26:11;;;;;;;4.07;1.70;;;19.10;99.50;;;;;;4843681;29;20048;-82
2022/06/02 09:28:37;;;;;;;2.67;1.35;;;19.00;99.60;;;;;;4879995;29;20080;-82
2022/06/02 09:31:24;;;;;;;2.30;1.50;;;18.90;99.70;;;;;;4864500;29;20060;-82
2022/06/02 09:34:27;;;;;;;5.75;1.83;;;18.60;98.80;;;;;;4864549;29;20036;-81
2022/06/02 09:37:23;;;;;;;2.47;1.45;;;18.30;98.60;;;;;;4877892;29;20036;-81
2022/06/02 09:39:54;;;;;;;3.20;1.83;;;18.30;98.40;;;;;;4878366;29;20092;-82
2022/06/02 09:43:21;;;;;;;1.73;1.45;;;18.30;99.00;;;;;;4874842;29;20084;-82
2022/06/02 09:46:14;;;;;;;2.75;1.70;;;18.50;98.20;;;;;;4786199;29;20095;-82
2022/06/02 09:49:07;;;;;;;3.42;1.80;;;18.70;97.70;;;;;;4860369;29;20140;-82
2022/06/02 09:51:42;;;;;;;3.47;1.45;;;19.00;97.60;;;;;;4868633;29;20041;-82
2022/06/02 09:54:42;;;;;;;3.60;1.55;;;19.20;98.80;;;;;;4894123;29;20075;-82
2022/06/02 09:57:55;;;;;;;2.67;1.40;;;19.30;97.20;;;;;;4897747;29;20103;-82
2022/06/02 10:00:36;;;;;;;4.75;1.75;;;19.30;96.20;;;;;;4891139;29;20048;-81
2022/06/02 10:03:48;;;;;;;2.95;1.40;;;19.20;95.50;;;;;;4898386;29;20040;-82
2022/06/02 10:06:43;;;;;;;3.45;1.30;;;19.30;95.80;;;;;;4852057;29;20063;-82
2022/06/02 10:09:36;;;;;;;3.25;1.55;;;19.40;95.90;;;;;;4895883;29;20040;-82
2022/06/02 10:15:20;;;;;;;2.28;1.40;;;19.50;96.20;;;;;;4898471;29;20051;-82
2022/06/02 10:18:01;;;;;;;3.63;1.40;;;19.60;95.10;;;;;;4897834;29;20036;-82
2022/06/02 10:20:56;;;;;;;3.83;1.48;;;19.30;96.00;;;;;;4895129;29;20051;-82
2022/06/02 10:23:41;;;;;;;2.90;1.30;;;19.00;95.10;;;;;;4881122;29;20040;-82
2022/06/02 10:26:26;;;;;;;1.90;1.30;;;18.70;95.80;;;;;;4897480;29;20051;-83
2022/06/02 10:29:04;;;;;;;1.73;1.20;;;18.40;95.70;;;;;;4897560;29;20048;-82
2022/06/02 10:31:52;;;;;;;1.50;1.25;;;18.20;96.10;;;;;;4894831;29;20187;-82
2022/06/02 10:34:55;;;;;;;2.38;1.20;;;18.20;95.90;;;;;;4882722;29;20047;-82
2022/06/02 10:37:49;;;;;;;4.32;1.52;;;18.20;96.50;;;;;;4884762;29;20549;-82
2022/06/02 10:40:45;;;;;;;2.50;1.48;;;18.20;95.90;;;;;;4912129;29;20122;-82
2022/06/02 10:43:41;;;;;;;2.88;1.55;;;18.20;95.80;;;;;;4894009;29;20090;-82
2022/06/02 10:46:45;;;;;;;1.90;1.35;;;18.00;96.00;;;;;;4878467;29;20394;-82
2022/06/02 10:49:44;;;;;;;4.88;1.77;;;17.90;97.20;;;;;;4893423;29;20051;-82
2022/06/02 10:52:40;;;;;;;2.28;1.45;;;17.90;96.80;;;;;;4896263;29;20111;-83
2022/06/02 10:55:16;;;;;;;2.47;1.40;;;17.80;97.00;;;;;;4886372;29;20045;-82
2022/06/02 10:58:13;;;;;;;2.67;1.73;;;17.70;99.00;;;;;;4899443;29;20040;-81
2022/06/02 11:01:06;;;;;;;2.33;1.42;;;17.70;97.20;;;;;;4897092;29;20040;-80
2022/06/02 11:04:10;;;;;;;2.95;1.48;;;17.70;98.00;;;;;;4888001;29;20050;-81
2022/06/02 11:06:50;;;;;;;3.92;1.30;;;17.80;99.10;;;;;;4902850;29;20044;-80
2022/06/02 11:09:43;;;;;;;3.58;1.38;;;17.90;99.90;;;;;;4900007;29;20040;-80
2022/06/02 11:12:33;;;;;;;2.95;1.30;;;18.00;99.70;;;;;;4887901;29;20123;-81
2022/06/02 11:15:28;;;;;;;1.85;1.30;;;18.20;97.70;;;;;;4889847;29;20047;-81
2022/06/02 11:18:15;;;;;;;2.45;1.20;;;18.30;95.90;;;;;;4884476;29;20409;-81
2022/06/02 11:21:23;;;;;;;2.22;1.35;;;18.20;94.60;;;;;;4900943;29;20392;-80
2022/06/02 11:23:58;;;;;;;2.00;1.23;;;18.10;95.40;;;;;;4899394;29;20100;-80
2022/06/02 11:26:59;;;;;;;2.10;1.52;;;18.00;97.30;;;;;;4889450;29;20463;-81
2022/06/02 11:29:30;;;;;;;2.67;1.38;;;18.10;98.00;;;;;;4897894;29;20131;-80
2022/06/02 11:32:08;;;;;;;4.10;1.40;;;18.10;98.20;;;;;;4900497;29;20032;-81
2022/06/02 11:34:59;;;;;;;1.90;1.35;;;18.10;97.80;;;;;;4915731;29;20058;-81
2022/06/02 11:37:53;;;;;;;2.50;1.50;;;18.20;97.20;;;;;;4885805;29;20096;-82
2022/06/02 11:40:28;;;;;;;2.38;1.60;;;18.20;96.70;;;;;;4899028;29;20058;-81
2022/06/02 11:43:12;;;;;;;1.55;1.30;;;18.30;97.30;;;;;;4899617;29;20047;-82
2022/06/02 11:45:50;;;;;;;2.50;1.20;;;18.40;98.30;;;;;;4882539;29;20049;-81
2022/06/02 11:48:35;;;;;;;2.13;1.45;;;18.60;97.80;;;;;;4897780;29;20040;-83
2022/06/02 11:51:43;;;;;;;3.13;1.60;;;18.60;96.20;;;;;;4887670;29;20040;-81
2022/06/02 11:54:30;;;;;;;2.70;1.40;;;18.60;95.90;;;;;;4873971;29;20131;-81
2022/06/02 11:57:40;;;;;;;1.92;1.10;;;18.60;95.20;;;;;;4891806;29;20461;-81
2022/06/02 12:00:49;;;;;;;3.55;1.55;;;18.50;96.70;;;;;;4881895;29;20044;-80
2022/06/02 12:04:09;;;;;;;3.45;1.30;;;18.50;97.20;;;;;;4874582;29;20524;-80
2022/06/02 12:07:16;;;;;;;5.20;2.25;;;18.40;96.40;;;;;;4804002;29;20047;-81
2022/06/02 12:09:53;;;;;;;;;;;18.40;95.70;;;;;;4874213;29;20489;-81
2022/06/02 12:13:01;;;;;;;2.65;1.40;;;18.30;97.00;;;;;;4883430;29;19920;-82
2022/06/02 12:15:57;;;;;;;1.90;1.50;;;18.20;96.30;;;;;;4883406;29;20048;-81
2022/06/02 12:18:53;;;;;;;1.88;1.20;;;18.20;96.80;;;;;;4893960;29;20040;-81
2022/06/02 12:21:24;;;;;;;2.17;1.17;;;18.20;96.20;;;;;;4881625;29;20838;-81
2022/06/02 12:23:53;;;;;;;2.50;1.20;;;18.10;96.60;;;;;;4870224;29;20855;-81
2022/06/02 12:26:40;;;;;;;2.88;1.33;;;18.00;97.20;;;;;;4881455;29;20052;-81
2022/06/02 12:29:39;;;;;;;3.10;1.33;;;18.10;97.70;;;;;;4908789;29;20049;-81
2022/06/02 12:32:42;;;;;;;3.28;1.23;;;18.40;97.30;;;;;;4871515;29;20131;-81
2022/06/02 12:35:51;;;;;;;3.03;1.40;;;19.00;97.50;;;;;;4885245;29;20047;-81
2022/06/02 12:38:29;;;;;;;2.15;1.02;;;19.80;97.50;;;;;;4804891;29;20112;-81
2022/06/02 12:41:19;;;;;;;2.03;1.10;;;20.10;95.00;;;;;;4868665;29;20047;-81
2022/06/02 12:44:24;;;;;;;3.42;1.27;;;20.00;94.80;;;;;;4886756;29;20064;-81
2022/06/02 12:47:17;;;;;;;1.58;1.17;;;19.90;93.90;;;;;;4889352;29;20075;-82
2022/06/02 12:50:07;;;;;;;2.38;1.20;;;19.70;93.70;;;;;;4884379;29;20068;-81
2022/06/02 12:52:51;;;;;;;2.67;1.30;;;19.50;92.80;;;;;;4887251;29;20064;-82
2022/06/02 12:55:19;;;;;;;2.33;1.30;;;19.70;93.60;;;;;;4899864;29;20091;-82
2022/06/02 12:58:16;;;;;;;1.65;1.10;;;19.80;94.00;;;;;;4898528;29;20115;-82
2022/06/02 13:00:51;;;;;;;1.73;1.10;;;19.80;93.10;;;;;;4906568;29;20070;-82
2022/06/02 13:03:25;;;;;;;1.40;1.15;;;19.60;93.60;;;;;;4902739;29;20055;-82
2022/06/02 13:06:23;;;;;;;2.33;1.30;;;19.50;93.00;;;;;;4899618;29;20416;-81
2022/06/02 13:09:03;;;;;;;3.00;1.40;;;19.20;92.10;;;;;;4885186;29;20043;-81
2022/06/02 13:11:54;;;;;;;2.15;1.50;;;19.00;92.90;;;;;;4902443;29;20090;-81
2022/06/02 13:14:29;;;;;;;1.65;1.15;;;18.80;93.20;;;;;;4899450;29;20040;-81
2022/06/02 13:17:21;;;;;;;1.98;1.30;;;18.70;93.00;;;;;;4901699;29;20048;-81
2022/06/02 13:20:09;;;;;;;2.42;1.33;;;18.70;94.60;;;;;;4884092;29;21409;-81
2022/06/02 13:23:03;;;;;;;2.88;1.52;;;18.60;94.60;;;;;;4897417;29;20036;-81
2022/06/02 13:26:06;;;;;;;2.10;1.30;;;18.70;93.70;;;;;;4913105;29;20171;-82
2022/06/02 13:29:05;;;;;;;3.00;1.08;;;18.70;94.00;;;;;;4902236;29;20131;-81
2022/06/02 13:31:40;;;;;;;1.55;1.13;;;18.80;95.10;;;;;;4882132;29;20040;-81
2022/06/02 13:34:50;;;;;;;1.98;1.15;;;19.10;95.10;;;;;;4883103;29;20412;-81
2022/06/02 13:37:31;;;;;;;2.13;1.10;;;19.70;94.60;;;;;;4823451;29;20716;-82
2022/06/02 13:40:15;;;;;;;1.63;1.00;;;19.90;94.20;;;;;;4895153;29;20142;-82
2022/06/02 13:43:13;;;;;;;1.83;1.20;;;20.40;94.50;;;;;;4898531;29;20048;-81
2022/06/02 13:46:05;;;;;;;1.55;1.10;;;20.70;93.50;;;;;;4896368;29;20094;-81
2022/06/02 13:48:54;;;;;;;3.65;1.30;;;20.60;91.40;;;;;;4912259;29;20048;-82
2022/06/02 13:51:38;;;;;;;2.30;1.00;;;20.50;92.30;;;;;;4897428;29;20055;-82
2022/06/02 13:57:42;;;;;;;3.85;1.00;;;20.30;92.60;;;;;;4867243;29;20111;-81
2022/06/02 14:00:36;;;;;;;1.35;1.00;;;20.10;92.70;;;;;;4896022;29;20119;-82
2022/06/02 14:03:17;;;;;;;1.40;1.20;;;20.10;92.30;;;;;;4889006;29;20056;-84
2022/06/02 14:06:07;;;;;;;1.90;1.17;;;20.10;92.50;;;;;;4897534;29;20040;-83
2022/06/02 14:08:46;;;;;;;2.10;1.10;;;20.00;90.50;;;;;;4896925;29;20110;-83
2022/06/02 14:11:42;;;;;;;1.42;1.10;;;19.80;91.20;;;;;;4894701;29;20091;-84
2022/06/02 14:14:42;;;;;;;2.50;1.20;;;19.70;91.60;;;;;;4881232;29;20044;-83
2022/06/02 14:17:56;;;;;;;2.28;1.20;;;19.70;92.70;;;;;;4881962;29;20614;-83
2022/06/02 14:20:46;;;;;;;3.53;1.40;;;20.10;92.80;;;;;;4867996;29;20048;-83
2022/06/02 14:23:31;;;;;;;1.60;0.95;;;20.50;91.70;;;;;;4885565;29;20396;-83
2022/06/02 14:26:05;;;;;;;1.40;1.10;;;20.80;91.40;;;;;;4895712;29;20047;-83
2022/06/02 14:28:54;;;;;;;1.75;1.17;;;21.10;90.50;;;;;;4880820;29;20401;-83
2022/06/02 14:31:32;;;;;;;4.05;1.10;;;21.70;90.40;;;;;;4894013;29;20046;-84
2022/06/02 14:34:03;;;;;;;2.08;0.93;;;22.30;90.60;;;;;;4881100;29;20032;-84
2022/06/02 14:36:50;;;;;;;2.22;1.02;;;22.90;87.10;;;;;;4895381;29;20059;-84